createdAt,value
2022-11-07T00:00:21.137Z,9.72
2022-11-07T00:01:21.252Z,9.64
2022-11-07T00:02:21.186Z,9.69
2022-11-07T00:03:21.141Z,9.68
2022-11-07T00:04:21.095Z,9.66
2022-11-07T00:05:21.084Z,9.72
2022-11-07T00:06:21.070Z,9.73
2022-11-07T00:07:21.068Z,9.68
2022-11-07T00:08:21.055Z,9.66
2022-11-07T00:09:21.047Z,9.62
2022-11-07T00:10:21.040Z,9.62
2022-11-07T00:11:21.036Z,9.64
2022-11-07T00:12:21.019Z,9.66
2022-11-07T00:13:21.654Z,9.72
2022-11-07T00:14:21.008Z,9.65
2022-11-07T00:15:21.007Z,9.65
2022-11-07T00:16:21.002Z,9.79
2022-11-07T00:17:21.016Z,9.86
2022-11-07T00:18:20.977Z,9.86
2022-11-07T00:19:20.968Z,9.89
2022-11-07T00:20:20.959Z,9.91
2022-11-07T00:21:20.956Z,9.91
2022-11-07T00:22:20.947Z,9.83
2022-11-07T00:23:20.928Z,9.86
2022-11-07T00:24:20.923Z,9.92
2022-11-07T00:25:20.918Z,10.01
2022-11-07T00:26:20.907Z,9.87
2022-11-07T00:27:20.958Z,9.91
2022-11-07T00:29:21.052Z,9.97
2022-11-07T00:30:21.057Z,9.94
2022-11-07T00:31:21.048Z,9.87
2022-11-07T00:32:21.047Z,10.01
2022-11-07T00:33:21.022Z,10.02
2022-11-07T00:34:22.117Z,10.07
2022-11-07T00:35:22.100Z,10.07
2022-11-07T00:36:22.091Z,10.04
2022-11-07T00:37:22.105Z,9.98
2022-11-07T00:38:22.078Z,9.98
2022-11-07T00:39:22.986Z,10.07
2022-11-07T00:40:22.058Z,9.92
2022-11-07T00:41:22.058Z,9.91
2022-11-07T00:42:22.046Z,9.95
2022-11-07T00:43:22.044Z,9.97
2022-11-07T00:44:22.033Z,9.97
2022-11-07T00:45:22.027Z,10.01
2022-11-07T00:46:22.030Z,10.07
2022-11-07T00:47:22.028Z,10.05
2022-11-07T00:48:22.016Z,10.10
2022-11-07T00:49:21.987Z,10.04
2022-11-07T00:50:22.989Z,10.02
2022-11-07T00:51:21.980Z,10.07
2022-11-07T00:52:21.971Z,10.07
2022-11-07T00:53:21.980Z,10.12
2022-11-07T00:54:21.958Z,10.13
2022-11-07T00:55:21.967Z,10.12
2022-11-07T00:56:21.944Z,10.23
2022-11-07T00:57:21.928Z,10.09
2022-11-07T00:58:21.921Z,10.07
2022-11-07T00:59:21.913Z,10.13
2022-11-07T01:00:21.899Z,10.04
2022-11-07T01:01:21.987Z,10.07
2022-11-07T01:02:21.985Z,10.17
2022-11-07T01:03:21.880Z,10.15
2022-11-07T01:04:21.870Z,10.15
2022-11-07T01:05:21.861Z,10.07
2022-11-07T01:06:21.858Z,9.99
2022-11-07T01:07:21.852Z,9.98
2022-11-07T01:08:21.833Z,9.98
2022-11-07T01:09:21.829Z,10.05
2022-11-07T01:10:21.828Z,10.04
2022-11-07T01:11:21.828Z,10.09
2022-11-07T01:12:21.814Z,10.07
2022-11-07T01:13:21.802Z,10.02
2022-11-07T01:14:21.804Z,10.13
2022-11-07T01:15:21.790Z,10.07
2022-11-07T01:16:21.781Z,10.07
2022-11-07T01:17:21.777Z,10.07
2022-11-07T01:18:21.751Z,10.09
2022-11-07T01:19:22.754Z,10.22
2022-11-07T01:20:21.739Z,10.12
2022-11-07T01:21:21.731Z,10.17
2022-11-07T01:22:22.503Z,10.20
2022-11-07T01:23:21.712Z,10.09
2022-11-07T01:24:21.715Z,10.16
2022-11-07T01:25:21.706Z,10.05
2022-11-07T01:26:21.831Z,10.13
2022-11-07T01:27:21.687Z,10.20
2022-11-07T01:28:21.674Z,10.16
2022-11-07T01:29:21.668Z,10.16
2022-11-07T01:30:21.672Z,10.28
2022-11-07T01:31:21.656Z,10.22
2022-11-07T01:32:21.660Z,10.23
2022-11-07T01:33:21.637Z,10.31
2022-11-07T01:34:21.635Z,10.31
2022-11-07T01:35:21.625Z,10.30
2022-11-07T01:36:21.643Z,10.26
2022-11-07T01:37:21.607Z,10.26
2022-11-07T01:38:21.606Z,10.31
2022-11-07T01:39:21.601Z,10.33
2022-11-07T01:40:21.585Z,10.30
2022-11-07T01:41:22.529Z,10.41
2022-11-07T01:42:21.571Z,10.33
2022-11-07T01:43:21.561Z,10.42
2022-11-07T01:44:21.555Z,10.40
2022-11-07T01:45:21.541Z,10.28
2022-11-07T01:46:21.541Z,10.38
2022-11-07T01:47:21.534Z,10.28
2022-11-07T01:48:21.517Z,10.34
2022-11-07T01:49:21.518Z,10.37
2022-11-07T01:50:24.676Z,10.31
2022-11-07T01:51:22.505Z,10.26
2022-11-07T01:52:21.494Z,10.28
2022-11-07T01:53:21.481Z,10.33
2022-11-07T01:54:21.473Z,10.37
2022-11-07T01:55:21.470Z,10.37
2022-11-07T01:56:21.464Z,10.35
2022-11-07T01:57:21.448Z,10.37
2022-11-07T01:58:21.462Z,10.33
2022-11-07T01:59:21.441Z,10.40
2022-11-07T02:00:21.422Z,10.35
2022-11-07T02:01:21.498Z,10.41
2022-11-07T02:02:21.512Z,10.38
2022-11-07T02:03:21.435Z,10.44
2022-11-07T02:04:21.388Z,10.38
2022-11-07T02:05:21.392Z,10.33
2022-11-07T02:06:21.375Z,10.40
2022-11-07T02:07:21.930Z,10.31
2022-11-07T02:08:21.372Z,10.23
2022-11-07T02:09:21.351Z,10.23
2022-11-07T02:10:21.343Z,10.37
2022-11-07T02:11:21.336Z,10.20
2022-11-07T02:12:21.333Z,10.31
2022-11-07T02:13:21.326Z,10.30
2022-11-07T02:14:21.399Z,10.30
2022-11-07T02:15:21.303Z,10.34
2022-11-07T02:16:21.307Z,10.33
2022-11-07T02:17:21.291Z,10.33
2022-11-07T02:18:21.314Z,10.31
2022-11-07T02:19:21.272Z,10.37
2022-11-07T02:20:21.271Z,10.40
2022-11-07T02:21:21.255Z,10.40
2022-11-07T02:22:21.251Z,10.34
2022-11-07T02:23:21.243Z,10.41
2022-11-07T02:24:21.231Z,10.38
2022-11-07T02:25:21.224Z,10.37
2022-11-07T02:26:21.218Z,10.38
2022-11-07T02:27:21.206Z,10.38
2022-11-07T02:28:21.207Z,10.46
2022-11-07T02:29:21.188Z,10.34
2022-11-07T02:30:21.183Z,10.40
2022-11-07T02:31:21.174Z,10.33
2022-11-07T02:32:21.184Z,10.37
2022-11-07T02:33:21.157Z,10.34
2022-11-07T02:34:21.156Z,10.41
2022-11-07T02:35:21.143Z,10.40
2022-11-07T02:36:21.146Z,10.31
2022-11-07T02:37:21.147Z,10.33
2022-11-07T02:38:21.123Z,10.34
2022-11-07T02:39:21.113Z,10.26
2022-11-07T02:40:21.128Z,10.35
2022-11-07T02:41:21.104Z,10.38
2022-11-07T02:42:21.091Z,10.38
2022-11-07T02:43:21.100Z,10.31
2022-11-07T02:44:21.078Z,10.35
2022-11-07T02:45:21.076Z,10.41
2022-11-07T02:46:21.944Z,10.31
2022-11-07T02:47:21.046Z,10.44
2022-11-07T02:48:21.056Z,10.38
2022-11-07T02:49:21.033Z,10.37
2022-11-07T02:50:21.017Z,10.26
2022-11-07T02:51:22.033Z,10.28
2022-11-07T02:52:21.025Z,10.26
2022-11-07T02:53:21.008Z,10.22
2022-11-07T02:54:21.010Z,10.28
2022-11-07T02:55:20.987Z,10.30
2022-11-07T02:56:20.997Z,10.40
2022-11-07T02:57:20.980Z,10.33
2022-11-07T02:58:20.973Z,10.26
2022-11-07T02:59:25.846Z,10.40
2022-11-07T03:00:22.971Z,10.41
2022-11-07T03:01:21.281Z,10.38
2022-11-07T03:02:21.229Z,10.40
2022-11-07T03:03:20.930Z,10.42
2022-11-07T03:04:20.914Z,10.48
2022-11-07T03:05:20.924Z,10.51
2022-11-07T03:06:20.901Z,10.51
2022-11-07T03:07:20.894Z,10.49
2022-11-07T03:08:20.898Z,10.49
2022-11-07T03:09:20.924Z,10.53
2022-11-07T03:10:20.865Z,10.54
2022-11-07T03:11:21.530Z,10.49
2022-11-07T03:12:20.850Z,10.51
2022-11-07T03:13:20.848Z,10.57
2022-11-07T03:14:20.878Z,10.56
2022-11-07T03:15:20.831Z,10.61
2022-11-07T03:16:20.825Z,10.61
2022-11-07T03:17:20.821Z,10.59
2022-11-07T03:18:21.819Z,10.53
2022-11-07T03:19:20.800Z,10.51
2022-11-07T03:20:20.811Z,10.57
2022-11-07T03:21:20.781Z,10.54
2022-11-07T03:22:20.768Z,10.48
2022-11-07T03:23:20.765Z,10.48
2022-11-07T03:24:20.762Z,10.46
2022-11-07T03:25:20.747Z,10.40
2022-11-07T03:26:20.734Z,10.40
2022-11-07T03:27:20.737Z,10.48
2022-11-07T03:28:20.721Z,10.41
2022-11-07T03:29:20.703Z,10.44
2022-11-07T03:30:22.451Z,10.49
2022-11-07T03:31:20.712Z,10.49
2022-11-07T03:32:20.697Z,10.44
2022-11-07T03:33:20.683Z,10.54
2022-11-07T03:34:20.671Z,10.53
2022-11-07T03:35:20.664Z,10.61
2022-11-07T03:36:20.658Z,10.64
2022-11-07T03:37:20.647Z,10.59
2022-11-07T03:38:20.640Z,10.56
2022-11-07T03:39:25.493Z,10.53
2022-11-07T03:40:22.620Z,10.57
2022-11-07T03:41:20.627Z,10.64
2022-11-07T03:42:20.611Z,10.60
2022-11-07T03:43:20.606Z,10.67
2022-11-07T03:44:20.595Z,10.59
2022-11-07T03:45:20.591Z,10.72
2022-11-07T03:46:20.589Z,10.67
2022-11-07T03:47:20.575Z,10.72
2022-11-07T03:48:20.558Z,10.59
2022-11-07T03:49:20.559Z,10.60
2022-11-07T03:50:20.551Z,10.63
2022-11-07T03:51:20.540Z,10.72
2022-11-07T03:52:20.530Z,10.74
2022-11-07T03:53:25.118Z,10.69
2022-11-07T03:54:22.515Z,10.69
2022-11-07T03:55:20.522Z,10.69
2022-11-07T03:56:20.498Z,10.60
2022-11-07T03:57:20.494Z,10.71
2022-11-07T03:58:20.520Z,10.72
2022-11-07T03:59:20.486Z,10.59
2022-11-07T04:00:21.035Z,10.53
2022-11-07T04:01:20.516Z,10.54
2022-11-07T04:02:20.613Z,10.57
2022-11-07T04:03:21.033Z,10.56
2022-11-07T04:04:20.480Z,10.56
2022-11-07T04:05:20.433Z,10.54
2022-11-07T04:06:20.430Z,10.54
2022-11-07T04:07:20.432Z,10.60
2022-11-07T04:08:20.402Z,10.56
2022-11-07T04:09:20.396Z,10.59
2022-11-07T04:10:20.396Z,10.60
2022-11-07T04:11:20.386Z,10.56
2022-11-07T04:12:20.372Z,10.67
2022-11-07T04:13:20.364Z,10.59
2022-11-07T04:14:20.369Z,10.67
2022-11-07T04:15:20.356Z,10.60
2022-11-07T04:16:20.346Z,10.61
2022-11-07T04:17:20.347Z,10.61
2022-11-07T04:18:20.348Z,10.61
2022-11-07T04:19:20.324Z,10.59
2022-11-07T04:20:20.322Z,10.68
2022-11-07T04:21:20.368Z,10.68
2022-11-07T04:22:20.302Z,10.67
2022-11-07T04:23:20.288Z,10.64
2022-11-07T04:24:20.286Z,10.68
2022-11-07T04:25:20.267Z,10.69
2022-11-07T04:26:20.266Z,10.69
2022-11-07T04:27:20.266Z,10.63
2022-11-07T04:28:20.296Z,10.64
2022-11-07T04:29:52.995Z,10.74
2022-11-07T04:30:20.329Z,10.63
2022-11-07T04:31:20.227Z,10.67
2022-11-07T04:32:20.214Z,10.63
2022-11-07T04:33:54.140Z,10.49
2022-11-07T04:34:20.196Z,10.56
2022-11-07T04:35:20.223Z,10.53
2022-11-07T04:36:20.203Z,10.64
2022-11-07T04:37:20.183Z,10.57
2022-11-07T04:38:20.260Z,10.57
2022-11-07T04:39:20.166Z,10.49
2022-11-07T04:40:20.345Z,10.54
2022-11-07T04:41:20.182Z,10.53
2022-11-07T04:42:20.134Z,10.57
2022-11-07T04:43:20.132Z,10.57
2022-11-07T04:44:20.144Z,10.59
2022-11-07T04:45:20.115Z,10.56
2022-11-07T04:46:20.116Z,10.44
2022-11-07T04:47:20.102Z,10.41
2022-11-07T04:48:20.095Z,10.46
2022-11-07T04:49:20.096Z,10.49
2022-11-07T04:50:20.083Z,10.49
2022-11-07T04:51:20.065Z,10.60
2022-11-07T04:52:20.056Z,10.46
2022-11-07T04:53:20.041Z,10.41
2022-11-07T04:54:20.036Z,10.34
2022-11-07T04:55:20.030Z,10.33
2022-11-07T04:56:20.028Z,10.31
2022-11-07T04:57:20.013Z,10.34
2022-11-07T04:58:20.003Z,10.35
2022-11-07T04:59:20.010Z,10.38
2022-11-07T05:00:20.027Z,10.40
2022-11-07T05:01:20.003Z,10.38
2022-11-07T05:02:20.024Z,10.37
2022-11-07T05:03:20.250Z,10.38
2022-11-07T05:04:19.954Z,10.30
2022-11-07T05:05:19.950Z,10.41
2022-11-07T05:06:19.926Z,10.38
2022-11-07T05:07:20.938Z,10.37
2022-11-07T05:08:19.939Z,10.38
2022-11-07T05:09:19.921Z,10.41
2022-11-07T05:10:19.913Z,10.38
2022-11-07T05:11:19.911Z,10.46
2022-11-07T05:12:19.896Z,10.53
2022-11-07T05:13:19.895Z,10.49
2022-11-07T05:14:19.880Z,10.57
2022-11-07T05:15:20.521Z,10.54
2022-11-07T05:16:20.529Z,10.54
2022-11-07T05:17:24.327Z,10.56
2022-11-07T05:18:20.856Z,10.61
2022-11-07T05:19:19.839Z,10.61
2022-11-07T05:20:21.604Z,10.69
2022-11-07T05:21:19.821Z,10.56
2022-11-07T05:22:19.828Z,10.61
2022-11-07T05:23:20.412Z,10.60
2022-11-07T05:24:19.811Z,10.75
2022-11-07T05:25:19.784Z,10.59
2022-11-07T05:26:19.779Z,10.71
2022-11-07T05:27:19.775Z,10.68
2022-11-07T05:28:25.739Z,10.68
2022-11-07T05:29:21.775Z,10.72
2022-11-07T05:30:19.798Z,10.75
2022-11-07T05:31:19.731Z,10.71
2022-11-07T05:32:19.765Z,10.72
2022-11-07T05:33:19.718Z,10.72
2022-11-07T05:34:20.119Z,10.75
2022-11-07T05:35:19.701Z,10.76
2022-11-07T05:36:19.705Z,10.68
2022-11-07T05:37:19.709Z,10.64
2022-11-07T05:38:19.692Z,10.64
2022-11-07T05:39:19.671Z,10.63
2022-11-07T05:40:19.660Z,10.69
2022-11-07T05:41:19.664Z,10.69
2022-11-07T05:42:19.663Z,10.61
2022-11-07T05:43:20.117Z,10.61
2022-11-07T05:44:19.634Z,10.57
2022-11-07T05:45:19.640Z,10.60
2022-11-07T05:46:20.616Z,10.72
2022-11-07T05:47:19.623Z,10.61
2022-11-07T05:48:19.620Z,10.67
2022-11-07T05:49:19.603Z,10.64
2022-11-07T05:50:19.592Z,10.67
2022-11-07T05:51:19.860Z,10.59
2022-11-07T05:52:21.638Z,10.60
2022-11-07T05:53:21.148Z,10.63
2022-11-07T05:54:19.553Z,10.64
2022-11-07T05:55:19.585Z,10.57
2022-11-07T05:56:19.542Z,10.64
2022-11-07T05:57:19.541Z,10.67
2022-11-07T05:58:19.533Z,10.54
2022-11-07T05:59:20.056Z,10.60
2022-11-07T06:00:19.647Z,10.57
2022-11-07T06:01:19.509Z,10.53
2022-11-07T06:02:19.712Z,10.51
2022-11-07T06:03:19.990Z,10.42
2022-11-07T06:04:19.483Z,10.40
2022-11-07T06:05:24.015Z,10.37
2022-11-07T06:06:20.461Z,10.40
2022-11-07T06:07:19.459Z,10.37
2022-11-07T06:08:19.439Z,10.37
2022-11-07T06:09:19.450Z,10.38
2022-11-07T06:10:19.439Z,10.31
2022-11-07T06:11:19.426Z,10.33
2022-11-07T06:12:19.442Z,10.35
2022-11-07T06:13:19.625Z,10.25
2022-11-07T06:14:19.408Z,10.51
2022-11-07T06:15:19.395Z,10.42
2022-11-07T06:16:20.112Z,10.40
2022-11-07T06:17:21.107Z,10.41
2022-11-07T06:18:19.355Z,10.48
2022-11-07T06:19:20.109Z,10.44
2022-11-07T06:20:19.343Z,10.48
2022-11-07T06:21:22.062Z,10.54
2022-11-07T06:22:22.110Z,10.56
2022-11-07T06:23:20.434Z,10.56
2022-11-07T06:24:19.317Z,10.56
2022-11-07T06:25:19.327Z,10.63
2022-11-07T06:26:19.313Z,10.56
2022-11-07T06:27:20.048Z,10.61
2022-11-07T06:28:19.304Z,10.60
2022-11-07T06:29:20.119Z,10.59
2022-11-07T06:30:19.330Z,10.56
2022-11-07T06:31:19.267Z,10.63
2022-11-07T06:33:26.464Z,10.67
2022-11-07T06:34:26.100Z,10.72
2022-11-07T06:35:27.188Z,10.68
2022-11-07T06:36:27.193Z,10.60
2022-11-07T06:37:27.168Z,10.74
2022-11-07T06:38:27.168Z,10.64
2022-11-07T06:39:27.148Z,10.69
2022-11-07T06:40:27.158Z,10.67
2022-11-07T06:41:27.145Z,10.63
2022-11-07T06:42:27.959Z,10.69
2022-11-07T06:43:27.124Z,10.64
2022-11-07T06:45:35.421Z,10.69
2022-11-07T06:46:35.408Z,10.71
2022-11-07T06:47:35.388Z,10.63
2022-11-07T06:48:36.262Z,10.63
2022-11-07T06:49:35.371Z,10.69
2022-11-07T06:50:35.391Z,10.57
2022-11-07T06:51:36.460Z,10.64
2022-11-07T06:52:36.441Z,10.63
2022-11-07T06:53:36.445Z,10.67
2022-11-07T06:54:36.420Z,10.78
2022-11-07T06:55:36.441Z,10.74
2022-11-07T06:56:36.408Z,10.74
2022-11-07T06:57:37.313Z,10.64
2022-11-07T06:58:36.422Z,10.84
2022-11-07T06:59:37.265Z,10.81
2022-11-07T07:00:36.585Z,10.78
2022-11-07T07:01:36.531Z,10.81
2022-11-07T07:02:57.549Z,10.87
2022-11-07T07:03:38.482Z,10.93
2022-11-07T07:04:37.357Z,10.89
2022-11-07T07:05:39.789Z,10.92
2022-11-07T07:06:36.322Z,10.93
2022-11-07T07:07:36.337Z,10.97
2022-11-07T07:08:36.311Z,10.97
2022-11-07T07:09:36.316Z,10.93
2022-11-07T07:10:36.295Z,10.94
2022-11-07T07:11:40.261Z,11.02
2022-11-07T07:12:36.267Z,11.04
2022-11-07T07:13:36.261Z,11.08
2022-11-07T07:14:36.254Z,11.08
2022-11-07T07:15:49.814Z,11.10
2022-11-07T07:16:38.228Z,11.18
2022-11-07T07:17:36.339Z,11.17
2022-11-07T07:18:36.229Z,11.15
2022-11-07T07:19:36.209Z,11.15
2022-11-07T07:20:36.237Z,11.26
2022-11-07T07:21:36.865Z,11.27
2022-11-07T07:22:36.199Z,11.19
2022-11-07T07:23:36.185Z,11.30
2022-11-07T07:24:36.198Z,11.27
2022-11-07T07:25:36.173Z,11.32
2022-11-07T07:26:36.158Z,11.48
2022-11-07T07:27:36.153Z,11.36
2022-11-07T07:28:36.148Z,11.36
2022-11-07T07:29:36.136Z,11.36
2022-11-07T07:30:36.125Z,11.47
2022-11-07T07:31:36.115Z,11.35
2022-11-07T07:32:36.106Z,11.35
2022-11-07T07:33:36.199Z,11.35
2022-11-07T07:34:36.086Z,11.35
2022-11-07T07:35:36.099Z,11.30
2022-11-07T07:36:36.087Z,11.32
2022-11-07T07:37:36.070Z,11.41
2022-11-07T07:38:36.079Z,11.33
2022-11-07T07:39:36.056Z,11.33
2022-11-07T07:40:36.052Z,11.43
2022-11-07T07:41:40.065Z,11.41
2022-11-07T07:42:37.059Z,11.41
2022-11-07T07:43:36.016Z,11.40
2022-11-07T07:44:36.018Z,11.50
2022-11-07T07:45:37.007Z,11.43
2022-11-07T07:46:36.796Z,11.59
2022-11-07T07:47:35.993Z,11.59
2022-11-07T07:48:35.978Z,11.54
2022-11-07T07:49:36.067Z,11.52
2022-11-07T07:50:35.965Z,11.54
2022-11-07T07:51:35.952Z,11.54
2022-11-07T07:53:42.798Z,11.60
2022-11-07T07:54:42.798Z,11.59
2022-11-07T07:55:42.792Z,11.66
2022-11-07T07:56:42.777Z,11.69
2022-11-07T07:57:42.776Z,11.75
2022-11-07T07:58:42.768Z,11.83
2022-11-07T07:59:42.752Z,11.99
2022-11-07T08:00:42.816Z,12.06
2022-11-07T08:01:42.922Z,11.97
2022-11-07T08:02:42.730Z,12.04
2022-11-07T08:04:00.726Z,12.06
2022-11-07T08:04:43.815Z,12.02
2022-11-07T08:05:45.658Z,12.02
2022-11-07T08:06:42.696Z,12.10
2022-11-07T08:07:42.702Z,12.24
2022-11-07T08:08:42.684Z,12.27
2022-11-07T08:09:42.678Z,12.39
2022-11-07T08:10:43.337Z,12.36
2022-11-07T08:11:43.662Z,12.53
2022-11-07T08:12:42.646Z,12.50
2022-11-07T08:13:42.638Z,12.57
2022-11-07T08:14:42.636Z,12.80
2022-11-07T08:15:42.622Z,12.91
2022-11-07T08:16:43.713Z,12.98
2022-11-07T08:17:43.702Z,13.05
2022-11-07T08:18:43.715Z,13.12
2022-11-07T08:19:44.602Z,13.13
2022-11-07T08:20:44.075Z,13.27
2022-11-07T08:21:43.770Z,13.25
2022-11-07T08:22:43.681Z,13.38
2022-11-07T08:23:43.661Z,13.30
2022-11-07T08:24:43.642Z,13.31
2022-11-07T08:25:43.649Z,13.31
2022-11-07T08:26:43.635Z,13.33
2022-11-07T08:27:44.167Z,13.44
2022-11-07T08:28:43.612Z,13.54
2022-11-07T08:29:43.603Z,13.60
2022-11-07T08:30:43.596Z,13.68
2022-11-07T08:31:43.601Z,13.75
2022-11-07T08:32:43.597Z,13.86
2022-11-07T08:33:45.291Z,13.85
2022-11-07T08:34:45.189Z,13.87
2022-11-07T08:35:43.560Z,14.07
2022-11-07T08:36:43.553Z,14.04
2022-11-07T08:37:44.264Z,13.87
2022-11-07T08:38:43.529Z,13.83
2022-11-07T08:39:43.528Z,13.78
2022-11-07T08:40:43.519Z,13.78
2022-11-07T08:41:43.523Z,13.75
2022-11-07T08:42:43.518Z,13.81
2022-11-07T08:43:43.491Z,13.86
2022-11-07T08:44:43.481Z,13.99
2022-11-07T08:45:43.479Z,14.04
2022-11-07T08:46:43.478Z,14.14
2022-11-07T08:47:44.172Z,14.15
2022-11-07T08:48:43.458Z,14.11
2022-11-07T08:49:43.466Z,14.23
2022-11-07T08:50:43.442Z,14.25
2022-11-07T08:51:43.424Z,14.14
2022-11-07T08:52:43.433Z,14.15
2022-11-07T08:53:43.408Z,14.18
2022-11-07T08:54:43.427Z,14.12
2022-11-07T08:55:43.397Z,14.25
2022-11-07T08:56:43.380Z,14.32
2022-11-07T08:57:43.384Z,14.43
2022-11-07T08:58:43.365Z,14.33
2022-11-07T08:59:43.364Z,14.29
2022-11-07T09:00:43.397Z,14.41
2022-11-07T09:02:14.346Z,14.44
2022-11-07T09:03:23.859Z,14.50
2022-11-07T09:03:50.259Z,14.44
2022-11-07T09:04:45.379Z,14.41
2022-11-07T09:05:44.185Z,14.62
2022-11-07T09:06:43.301Z,14.60
2022-11-07T09:07:43.294Z,14.48
2022-11-07T09:08:43.300Z,14.48
2022-11-07T09:09:43.280Z,14.29
2022-11-07T09:10:43.691Z,14.26
2022-11-07T09:11:43.259Z,14.32
2022-11-07T09:12:43.256Z,14.36
2022-11-07T09:13:43.258Z,14.43
2022-11-07T09:14:43.238Z,14.40
2022-11-07T09:15:49.396Z,14.45
2022-11-07T09:16:45.217Z,14.63
2022-11-07T09:17:43.211Z,14.63
2022-11-07T09:18:43.212Z,14.48
2022-11-07T09:19:43.210Z,14.54
2022-11-07T09:20:43.194Z,14.58
2022-11-07T09:21:43.185Z,14.65
2022-11-07T09:22:43.198Z,14.50
2022-11-07T09:23:43.174Z,14.47
2022-11-07T09:24:43.178Z,14.45
2022-11-07T09:25:43.154Z,14.58
2022-11-07T09:26:43.155Z,14.65
2022-11-07T09:27:43.136Z,14.68
2022-11-07T09:28:47.048Z,14.66
2022-11-07T09:29:45.123Z,14.66
2022-11-07T09:30:43.130Z,14.65
2022-11-07T09:31:43.679Z,14.77
2022-11-07T09:32:45.586Z,14.66
2022-11-07T09:33:44.089Z,14.84
2022-11-07T09:34:43.086Z,14.82
2022-11-07T09:35:43.081Z,14.88
2022-11-07T09:36:43.064Z,14.91
2022-11-07T09:37:43.068Z,14.85
2022-11-07T09:38:43.053Z,14.78
2022-11-07T09:39:43.056Z,14.88
2022-11-07T09:40:43.290Z,14.92
2022-11-07T09:41:43.021Z,14.81
2022-11-07T09:42:43.022Z,14.78
2022-11-07T09:43:43.018Z,14.73
2022-11-07T09:44:43.005Z,14.58
2022-11-07T09:45:43.006Z,14.78
2022-11-07T09:46:42.998Z,14.77
2022-11-07T09:47:42.987Z,14.82
2022-11-07T09:48:42.979Z,14.86
2022-11-07T09:49:43.688Z,14.78
2022-11-07T09:50:43.687Z,14.60
2022-11-07T09:51:42.953Z,14.73
2022-11-07T09:52:43.771Z,14.69
2022-11-07T09:53:44.760Z,14.78
2022-11-07T09:54:42.931Z,14.92
2022-11-07T09:55:42.917Z,14.81
2022-11-07T09:56:42.910Z,14.92
2022-11-07T09:57:42.899Z,14.97
2022-11-07T09:58:42.927Z,14.73
2022-11-07T09:59:42.882Z,14.86
2022-11-07T10:00:42.942Z,14.91
2022-11-07T10:01:43.012Z,14.81
2022-11-07T10:02:42.871Z,14.70
2022-11-07T10:03:52.951Z,14.78
2022-11-07T10:04:44.844Z,14.72
2022-11-07T10:05:42.832Z,14.66
2022-11-07T10:06:42.834Z,14.55
2022-11-07T10:07:42.819Z,14.40
2022-11-07T10:08:44.779Z,14.40
2022-11-07T10:09:42.836Z,14.45
2022-11-07T10:10:42.794Z,14.41
2022-11-07T10:11:42.803Z,14.50
2022-11-07T10:12:44.842Z,14.59
2022-11-07T10:13:43.777Z,14.68
2022-11-07T10:14:42.765Z,14.60
2022-11-07T10:15:42.764Z,14.73
2022-11-07T10:16:42.779Z,14.70
2022-11-07T10:17:42.746Z,14.68
2022-11-07T10:18:42.745Z,14.47
2022-11-07T10:19:42.738Z,14.41
2022-11-07T10:20:42.721Z,14.43
2022-11-07T10:21:42.712Z,14.41
2022-11-07T10:22:42.715Z,14.50
2022-11-07T10:23:42.687Z,14.53
2022-11-07T10:24:42.685Z,14.60
2022-11-07T10:25:42.675Z,14.50
2022-11-07T10:26:42.677Z,14.35
2022-11-07T10:27:42.663Z,14.41
2022-11-07T10:28:42.658Z,14.53
2022-11-07T10:29:44.740Z,14.66
2022-11-07T10:30:43.633Z,14.68
2022-11-07T10:31:42.633Z,14.94
2022-11-07T10:32:42.623Z,14.70
2022-11-07T10:33:42.620Z,14.82
2022-11-07T10:34:42.629Z,14.89
2022-11-07T10:35:42.595Z,15.04
2022-11-07T10:36:42.599Z,15.22
2022-11-07T10:37:42.587Z,15.24
2022-11-07T10:38:42.572Z,15.42
2022-11-07T10:39:42.580Z,15.33
2022-11-07T10:40:44.195Z,15.42
2022-11-07T10:41:42.558Z,15.61
2022-11-07T10:42:42.539Z,15.51
2022-11-07T10:43:44.225Z,15.58
2022-11-07T10:44:43.422Z,15.54
2022-11-07T10:45:42.521Z,15.47
2022-11-07T10:46:42.503Z,15.52
2022-11-07T10:47:42.496Z,15.55
2022-11-07T10:48:42.506Z,15.68
2022-11-07T10:49:42.508Z,15.77
2022-11-07T10:50:42.475Z,15.64
2022-11-07T10:51:43.286Z,15.59
2022-11-07T10:52:42.461Z,15.65
2022-11-07T10:53:42.470Z,15.57
2022-11-07T10:54:42.454Z,15.43
2022-11-07T10:55:42.434Z,15.42
2022-11-07T10:56:42.434Z,15.47
2022-11-07T10:57:42.420Z,15.51
2022-11-07T10:58:42.453Z,15.44
2022-11-07T10:59:42.414Z,15.40
2022-11-07T11:00:42.499Z,15.44
2022-11-07T11:01:42.475Z,15.42
2022-11-07T11:02:42.387Z,15.39
2022-11-07T11:03:44.866Z,15.59
2022-11-07T11:04:48.016Z,15.67
2022-11-07T11:05:44.373Z,15.52
2022-11-07T11:06:42.375Z,15.52
2022-11-07T11:07:44.309Z,15.62
2022-11-07T11:08:42.379Z,15.65
2022-11-07T11:09:44.219Z,15.79
2022-11-07T11:10:42.348Z,15.82
2022-11-07T11:11:42.329Z,15.75
2022-11-07T11:12:42.990Z,15.72
2022-11-07T11:13:47.308Z,15.73
2022-11-07T11:14:52.822Z,15.79
2022-11-07T11:15:42.814Z,15.88
2022-11-07T11:16:42.432Z,15.90
2022-11-07T11:17:42.269Z,15.98
2022-11-07T11:18:42.287Z,15.76
2022-11-07T11:19:42.259Z,15.73
2022-11-07T11:20:42.246Z,15.73
2022-11-07T11:21:42.248Z,15.95
2022-11-07T11:22:43.220Z,16.04
2022-11-07T11:23:42.235Z,16.00
2022-11-07T11:24:42.232Z,16.05
2022-11-07T11:25:44.745Z,16.05
2022-11-07T11:26:42.719Z,16.10
2022-11-07T11:27:42.194Z,16.02
2022-11-07T11:28:42.183Z,16.02
2022-11-07T11:29:42.801Z,15.90
2022-11-07T11:30:42.159Z,15.90
2022-11-07T11:31:42.148Z,15.91
2022-11-07T11:32:43.796Z,15.83
2022-11-07T11:33:42.154Z,15.70
2022-11-07T11:34:42.139Z,15.67
2022-11-07T11:35:42.528Z,15.65
2022-11-07T11:36:43.102Z,15.51
2022-11-07T11:37:42.099Z,15.61
2022-11-07T11:38:43.220Z,15.64
2022-11-07T11:39:42.078Z,15.72
2022-11-07T11:40:42.092Z,15.72
2022-11-07T11:41:42.061Z,15.73
2022-11-07T11:42:42.063Z,15.68
2022-11-07T11:43:42.055Z,15.59
2022-11-07T11:44:42.054Z,15.39
2022-11-07T11:45:43.824Z,15.27
2022-11-07T11:46:43.731Z,15.21
2022-11-07T11:47:43.824Z,15.18
2022-11-07T11:48:42.024Z,15.10
2022-11-07T11:49:44.826Z,15.11
2022-11-07T11:50:43.003Z,15.00
2022-11-07T11:51:41.992Z,15.04
2022-11-07T11:52:41.987Z,14.94
2022-11-07T11:53:41.979Z,14.92
2022-11-07T11:54:41.965Z,14.97
2022-11-07T11:55:41.964Z,15.00
2022-11-07T11:56:41.953Z,15.09
2022-11-07T11:57:41.939Z,15.22
2022-11-07T11:58:41.938Z,15.33
2022-11-07T11:59:41.947Z,15.37
2022-11-07T12:00:41.919Z,15.42
2022-11-07T12:01:41.907Z,15.44
2022-11-07T12:02:41.957Z,15.52
2022-11-07T12:03:41.913Z,15.51
2022-11-07T12:04:42.036Z,15.37
2022-11-07T12:05:41.876Z,15.46
2022-11-07T12:06:41.871Z,15.54
2022-11-07T12:07:41.859Z,15.61
2022-11-07T12:08:41.880Z,15.83
2022-11-07T12:09:41.868Z,15.79
2022-11-07T12:10:43.726Z,15.72
2022-11-07T12:11:41.862Z,15.86
2022-11-07T12:12:41.828Z,15.88
2022-11-07T12:13:42.809Z,15.98
2022-11-07T12:14:41.812Z,15.92
2022-11-07T12:15:41.805Z,16.02
2022-11-07T12:16:41.791Z,15.94
2022-11-07T12:17:41.802Z,15.75
2022-11-07T12:18:41.782Z,15.82
2022-11-07T12:19:41.832Z,15.90
2022-11-07T12:20:41.782Z,15.90
2022-11-07T12:21:47.336Z,15.82
2022-11-07T12:22:43.740Z,15.88
2022-11-07T12:23:41.736Z,15.77
2022-11-07T12:24:41.757Z,15.98
2022-11-07T12:25:41.748Z,15.91
2022-11-07T12:26:41.715Z,15.95
2022-11-07T12:29:00.937Z,15.75
2022-11-07T12:30:01.917Z,15.88
2022-11-07T12:31:00.046Z,15.88
2022-11-07T12:32:00.031Z,15.76
2022-11-07T12:33:00.037Z,15.76
2022-11-07T12:34:01.905Z,15.55
2022-11-07T12:35:01.113Z,15.46
2022-11-07T12:36:01.109Z,15.49
2022-11-07T12:37:01.090Z,15.59
2022-11-07T12:38:01.091Z,15.70
2022-11-07T12:39:01.084Z,15.84
2022-11-07T12:40:01.065Z,15.84
2022-11-07T12:41:01.085Z,15.86
2022-11-07T12:42:01.071Z,15.90
2022-11-07T12:43:01.063Z,15.80
2022-11-07T12:44:01.998Z,15.86
2022-11-07T12:45:01.031Z,15.88
2022-11-07T12:46:01.028Z,15.88
2022-11-07T12:47:01.018Z,15.92
2022-11-07T12:48:01.013Z,16.12
2022-11-07T12:49:00.988Z,16.04
2022-11-07T12:50:01.994Z,16.05
2022-11-07T12:51:01.029Z,15.86
2022-11-07T12:52:00.979Z,15.88
2022-11-07T12:53:00.969Z,15.82
2022-11-07T12:54:00.958Z,15.77
2022-11-07T12:55:00.957Z,15.61
2022-11-07T12:56:00.960Z,15.70
2022-11-07T12:57:00.936Z,15.72
2022-11-07T12:58:00.937Z,15.67
2022-11-07T12:59:00.920Z,15.68